sensor_id;sensor_type;location;lat;lon;timestamp;temperature;humidity
78696;SHT31;68030;51.980;5.646;2023-04-29T07:16:55;17.2;50.3
78696;SHT31;68030;51.980;5.646;2023-04-29T07:19:25;16.9;51.2
78696;SHT31;68030;51.980;5.646;2023-04-29T07:21:55;16.8;51.6
78696;SHT31;68030;51.980;5.646;2023-04-29T07:24:24;16.7;51.6
78696;SHT31;68030;51.980;5.646;2023-04-29T07:26:54;16.7;52.0
78696;SHT31;68030;51.980;5.646;2023-04-29T07:29:23;16.7;51.7
78696;SHT31;68030;51.980;5.646;2023-04-29T07:31:53;16.6;51.5
78696;SHT31;68030;51.980;5.646;2023-04-29T07:34:23;16.6;52.2
78696;SHT31;68030;51.980;5.646;2023-04-29T07:36:53;16.6;52.5
78696;SHT31;68030;51.980;5.646;2023-04-29T07:39:23;16.5;52.6
78696;SHT31;68030;51.980;5.646;2023-04-29T07:41:55;16.5;52.3
78696;SHT31;68030;51.980;5.646;2023-04-29T07:44:26;16.5;52.3
78696;SHT31;68030;51.980;5.646;2023-04-29T07:46:55;16.5;52.0
78696;SHT31;68030;51.980;5.646;2023-04-29T07:49:25;16.5;52.1
78696;SHT31;68030;51.980;5.646;2023-04-29T07:51:55;16.5;51.8
78696;SHT31;68030;51.980;5.646;2023-04-29T07:54:26;16.5;51.5
78696;SHT31;68030;51.980;5.646;2023-04-29T07:56:56;16.5;51.8
78696;SHT31;68030;51.980;5.646;2023-04-29T07:59:26;16.4;51.8
78696;SHT31;68030;51.980;5.646;2023-04-29T08:01:57;16.4;51.2
78696;SHT31;68030;51.980;5.646;2023-04-29T08:04:26;16.4;51.5
78696;SHT31;68030;51.980;5.646;2023-04-29T08:06:56;16.4;52.0
78696;SHT31;68030;51.980;5.646;2023-04-29T08:09:25;16.4;51.5
78696;SHT31;68030;51.980;5.646;2023-04-29T08:11:55;16.3;52.3
78696;SHT31;68030;51.980;5.646;2023-04-29T08:14:24;16.3;52.7
78696;SHT31;68030;51.980;5.646;2023-04-29T08:16:54;16.3;52.3
78696;SHT31;68030;51.980;5.646;2023-04-29T08:19:24;16.3;52.6
78696;SHT31;68030;51.980;5.646;2023-04-29T08:21:53;16.3;52.3
78696;SHT31;68030;51.980;5.646;2023-04-29T08:24:23;16.4;51.7
78696;SHT31;68030;51.980;5.646;2023-04-29T08:26:53;16.4;51.8
78696;SHT31;68030;51.980;5.646;2023-04-29T08:29:22;16.4;51.3
78696;SHT31;68030;51.980;5.646;2023-04-29T08:31:52;16.4;52.2
78696;SHT31;68030;51.980;5.646;2023-04-29T08:34:22;16.4;51.5
78696;SHT31;68030;51.980;5.646;2023-04-29T08:36:53;16.4;51.8
78696;SHT31;68030;51.980;5.646;2023-04-29T08:39:25;16.4;52.1
78696;SHT31;68030;51.980;5.646;2023-04-29T08:42:00;16.5;52.0
78696;SHT31;68030;51.980;5.646;2023-04-29T08:44:32;16.5;51.3
78696;SHT31;68030;51.980;5.646;2023-04-29T08:47:04;16.5;52.2
78696;SHT31;68030;51.980;5.646;2023-04-29T08:49:35;16.6;51.5
78696;SHT31;68030;51.980;5.646;2023-04-29T08:52:05;16.6;51.5
78696;SHT31;68030;51.980;5.646;2023-04-29T08:54:35;16.7;50.3
78696;SHT31;68030;51.980;5.646;2023-04-29T08:57:05;16.8;49.6
78696;SHT31;68030;51.980;5.646;2023-04-29T08:59:35;16.9;49.3
78696;SHT31;68030;51.980;5.646;2023-04-29T09:02:06;16.9;49.3
78696;SHT31;68030;51.980;5.646;2023-04-29T09:04:47;16.9;49.4
78696;SHT31;68030;51.980;5.646;2023-04-29T09:07:17;16.9;49.7
78696;SHT31;68030;51.980;5.646;2023-04-29T09:09:48;17.0;48.0
78696;SHT31;68030;51.980;5.646;2023-04-29T09:12:22;17.0;48.1
78696;SHT31;68030;51.980;5.646;2023-04-29T09:14:52;17.0;48.0
78696;SHT31;68030;51.980;5.646;2023-04-29T09:17:41;17.0;47.7
78696;SHT31;68030;51.980;5.646;2023-04-29T09:20:28;17.0;47.8
78696;SHT31;68030;51.980;5.646;2023-04-29T09:23:00;17.0;48.3
78696;SHT31;68030;51.980;5.646;2023-04-29T09:25:33;16.9;48.1
78696;SHT31;68030;51.980;5.646;2023-04-29T09:28:15;16.9;48.6
78696;SHT31;68030;51.980;5.646;2023-04-29T09:30:47;16.9;48.0
78696;SHT31;68030;51.980;5.646;2023-04-29T09:33:19;16.8;48.2
78696;SHT31;68030;51.980;5.646;2023-04-29T09:35:49;16.8;49.4
78696;SHT31;68030;51.980;5.646;2023-04-29T09:38:18;16.9;49.3
78696;SHT31;68030;51.980;5.646;2023-04-29T09:40:48;16.9;48.4
78696;SHT31;68030;51.980;5.646;2023-04-29T09:43:20;17.0;48.3
78696;SHT31;68030;51.980;5.646;2023-04-29T09:45:52;17.1;48.1
78696;SHT31;68030;51.980;5.646;2023-04-29T09:48:31;17.2;47.5
78696;SHT31;68030;51.980;5.646;2023-04-29T09:51:03;17.3;46.5
78696;SHT31;68030;51.980;5.646;2023-04-29T09:53:32;17.3;46.5
78696;SHT31;68030;51.980;5.646;2023-04-29T09:56:05;17.4;45.7
78696;SHT31;68030;51.980;5.646;2023-04-29T09:58:36;17.4;45.5
78696;SHT31;68030;51.980;5.646;2023-04-29T10:01:06;17.4;46.1
78696;SHT31;68030;51.980;5.646;2023-04-29T10:03:39;17.4;46.2
78696;SHT31;68030;51.980;5.646;2023-04-29T10:06:11;17.5;46.5
78696;SHT31;68030;51.980;5.646;2023-04-29T10:08:42;17.6;46.8
78696;SHT31;68030;51.980;5.646;2023-04-29T10:11:15;17.6;45.5
78696;SHT31;68030;51.980;5.646;2023-04-29T10:13:48;17.7;45.3
78696;SHT31;68030;51.980;5.646;2023-04-29T10:16:29;17.7;46.0
78696;SHT31;68030;51.980;5.646;2023-04-29T10:19:03;17.7;46.0
78696;SHT31;68030;51.980;5.646;2023-04-29T10:21:37;17.8;44.5
78696;SHT31;68030;51.980;5.646;2023-04-29T10:24:10;17.8;44.3
78696;SHT31;68030;51.980;5.646;2023-04-29T10:26:42;17.8;44.9
78696;SHT31;68030;51.980;5.646;2023-04-29T10:29:13;17.8;44.3
78696;SHT31;68030;51.980;5.646;2023-04-29T10:31:46;17.8;43.7
78696;SHT31;68030;51.980;5.646;2023-04-29T10:34:19;17.8;44.0
78696;SHT31;68030;51.980;5.646;2023-04-29T10:36:49;17.8;44.8
78696;SHT31;68030;51.980;5.646;2023-04-29T10:39:29;17.9;45.3
78696;SHT31;68030;51.980;5.646;2023-04-29T10:42:03;17.9;44.2
78696;SHT31;68030;51.980;5.646;2023-04-29T10:45:00;18.0;44.1
78696;SHT31;68030;51.980;5.646;2023-04-29T10:47:34;18.0;45.0
78696;SHT31;68030;51.980;5.646;2023-04-29T10:50:08;18.1;44.9
78696;SHT31;68030;51.980;5.646;2023-04-29T10:52:54;18.2;44.6
78696;SHT31;68030;51.980;5.646;2023-04-29T10:55:24;18.3;43.6
78696;SHT31;68030;51.980;5.646;2023-04-29T10:57:55;18.3;43.4
78696;SHT31;68030;51.980;5.646;2023-04-29T11:00:29;18.3;43.4
78696;SHT31;68030;51.980;5.646;2023-04-29T11:03:01;18.3;43.1
78696;SHT31;68030;51.980;5.646;2023-04-29T11:05:33;18.4;43.0
78696;SHT31;68030;51.980;5.646;2023-04-29T11:08:10;18.4;43.7
78696;SHT31;68030;51.980;5.646;2023-04-29T11:10:43;18.4;44.0
78696;SHT31;68030;51.980;5.646;2023-04-29T11:13:28;18.5;43.2
78696;SHT31;68030;51.980;5.646;2023-04-29T11:16:06;18.5;43.6
78696;SHT31;68030;51.980;5.646;2023-04-29T11:19:04;18.6;42.2
78696;SHT31;68030;51.980;5.646;2023-04-29T11:21:36;18.6;42.2
78696;SHT31;68030;51.980;5.646;2023-04-29T11:24:12;18.7;42.2
78696;SHT31;68030;51.980;5.646;2023-04-29T11:26:44;18.8;42.8
78696;SHT31;68030;51.980;5.646;2023-04-29T11:29:17;19.0;41.0
78696;SHT31;68030;51.980;5.646;2023-04-29T11:31:52;19.2;40.6
78696;SHT31;68030;51.980;5.646;2023-04-29T11:34:27;19.4;40.2
78696;SHT31;68030;51.980;5.646;2023-04-29T11:36:57;19.4;40.3
78696;SHT31;68030;51.980;5.646;2023-04-29T11:39:27;19.5;41.0
78696;SHT31;68030;51.980;5.646;2023-04-29T11:42:04;19.6;41.9
78696;SHT31;68030;51.980;5.646;2023-04-29T11:44:35;19.6;41.9
78696;SHT31;68030;51.980;5.646;2023-04-29T11:47:06;19.7;41.5
78696;SHT31;68030;51.980;5.646;2023-04-29T11:49:35;19.7;39.9
78696;SHT31;68030;51.980;5.646;2023-04-29T11:52:06;19.8;39.6
78696;SHT31;68030;51.980;5.646;2023-04-29T11:54:39;19.8;40.7
78696;SHT31;68030;51.980;5.646;2023-04-29T11:57:09;19.8;40.0
78696;SHT31;68030;51.980;5.646;2023-04-29T11:59:41;19.9;38.7
78696;SHT31;68030;51.980;5.646;2023-04-29T12:02:13;19.9;39.9
78696;SHT31;68030;51.980;5.646;2023-04-29T12:04:48;19.9;39.8
78696;SHT31;68030;51.980;5.646;2023-04-29T12:07:18;19.9;39.6
78696;SHT31;68030;51.980;5.646;2023-04-29T12:09:48;20.0;39.7
78696;SHT31;68030;51.980;5.646;2023-04-29T12:12:19;20.1;40.0
78696;SHT31;68030;51.980;5.646;2023-04-29T12:14:50;20.2;40.2
78696;SHT31;68030;51.980;5.646;2023-04-29T12:17:20;20.3;38.5
78696;SHT31;68030;51.980;5.646;2023-04-29T12:19:50;20.3;38.6
78696;SHT31;68030;51.980;5.646;2023-04-29T12:22:20;20.3;38.0
78696;SHT31;68030;51.980;5.646;2023-04-29T12:24:51;20.3;37.9
78696;SHT31;68030;51.980;5.646;2023-04-29T12:27:21;20.2;39.0
78696;SHT31;68030;51.980;5.646;2023-04-29T12:29:52;20.2;38.6
78696;SHT31;68030;51.980;5.646;2023-04-29T12:32:24;20.3;38.6
78696;SHT31;68030;51.980;5.646;2023-04-29T12:34:56;20.4;38.2
78696;SHT31;68030;51.980;5.646;2023-04-29T12:37:26;20.5;37.8
78696;SHT31;68030;51.980;5.646;2023-04-29T12:39:58;20.5;37.5
78696;SHT31;68030;51.980;5.646;2023-04-29T12:42:32;20.6;37.8
78696;SHT31;68030;51.980;5.646;2023-04-29T12:45:03;20.6;37.9
78696;SHT31;68030;51.980;5.646;2023-04-29T12:47:34;20.6;37.8
78696;SHT31;68030;51.980;5.646;2023-04-29T12:50:05;20.6;37.3
78696;SHT31;68030;51.980;5.646;2023-04-29T12:52:37;20.7;36.7
78696;SHT31;68030;51.980;5.646;2023-04-29T12:55:08;20.8;37.3
78696;SHT31;68030;51.980;5.646;2023-04-29T12:57:37;20.9;36.9
78696;SHT31;68030;51.980;5.646;2023-04-29T13:00:08;21.0;37.2
78696;SHT31;68030;51.980;5.646;2023-04-29T13:02:39;21.0;37.5
78696;SHT31;68030;51.980;5.646;2023-04-29T13:05:09;21.0;37.5
78696;SHT31;68030;51.980;5.646;2023-04-29T13:07:39;21.0;36.9
78696;SHT31;68030;51.980;5.646;2023-04-29T13:10:10;21.0;37.1
78696;SHT31;68030;51.980;5.646;2023-04-29T13:12:40;21.0;38.2
78696;SHT31;68030;51.980;5.646;2023-04-29T13:15:11;21.0;38.4
78696;SHT31;68030;51.980;5.646;2023-04-29T13:17:41;21.0;35.8
78696;SHT31;68030;51.980;5.646;2023-04-29T13:20:12;21.0;35.6
78696;SHT31;68030;51.980;5.646;2023-04-29T13:22:42;21.1;35.4
78696;SHT31;68030;51.980;5.646;2023-04-29T13:25:12;21.1;34.9
78696;SHT31;68030;51.980;5.646;2023-04-29T13:27:44;21.2;37.2
78696;SHT31;68030;51.980;5.646;2023-04-29T13:30:14;21.2;36.5
78696;SHT31;68030;51.980;5.646;2023-04-29T13:32:44;21.3;35.2
78696;SHT31;68030;51.980;5.646;2023-04-29T13:35:13;21.4;35.1
78696;SHT31;68030;51.980;5.646;2023-04-29T13:37:43;21.4;34.7
78696;SHT31;68030;51.980;5.646;2023-04-29T13:40:13;21.5;34.3
78696;SHT31;68030;51.980;5.646;2023-04-29T13:42:43;21.5;34.5
78696;SHT31;68030;51.980;5.646;2023-04-29T13:45:12;21.5;35.6
78696;SHT31;68030;51.980;5.646;2023-04-29T13:47:42;21.4;35.3
78696;SHT31;68030;51.980;5.646;2023-04-29T13:50:12;21.4;36.2
78696;SHT31;68030;51.980;5.646;2023-04-29T13:52:42;21.4;36.5
78696;SHT31;68030;51.980;5.646;2023-04-29T13:55:12;21.3;37.2
78696;SHT31;68030;51.980;5.646;2023-04-29T13:57:41;21.3;37.6
78696;SHT31;68030;51.980;5.646;2023-04-29T14:00:12;21.2;37.0
78696;SHT31;68030;51.980;5.646;2023-04-29T14:02:42;21.2;36.3
78696;SHT31;68030;51.980;5.646;2023-04-29T14:05:12;21.2;36.7
78696;SHT31;68030;51.980;5.646;2023-04-29T14:07:42;21.2;36.3
78696;SHT31;68030;51.980;5.646;2023-04-29T14:10:12;21.2;35.8
78696;SHT31;68030;51.980;5.646;2023-04-29T14:12:42;21.3;35.3
78696;SHT31;68030;51.980;5.646;2023-04-29T14:15:12;21.3;35.7
78696;SHT31;68030;51.980;5.646;2023-04-29T14:17:43;21.4;36.1
78696;SHT31;68030;51.980;5.646;2023-04-29T14:20:13;21.5;36.8
78696;SHT31;68030;51.980;5.646;2023-04-29T14:22:43;21.5;35.9
78696;SHT31;68030;51.980;5.646;2023-04-29T14:25:13;21.5;35.6
78696;SHT31;68030;51.980;5.646;2023-04-29T14:27:42;21.4;35.6
78696;SHT31;68030;51.980;5.646;2023-04-29T14:30:15;21.4;36.6
78696;SHT31;68030;51.980;5.646;2023-04-29T14:32:44;21.4;36.6
78696;SHT31;68030;51.980;5.646;2023-04-29T14:35:14;21.4;36.7
78696;SHT31;68030;51.980;5.646;2023-04-29T14:37:44;21.4;36.4
78696;SHT31;68030;51.980;5.646;2023-04-29T14:40:14;21.5;36.0
78696;SHT31;68030;51.980;5.646;2023-04-29T14:42:43;21.5;36.6
78696;SHT31;68030;51.980;5.646;2023-04-29T14:45:13;21.6;37.5
78696;SHT31;68030;51.980;5.646;2023-04-29T14:47:43;21.6;36.5
78696;SHT31;68030;51.980;5.646;2023-04-29T14:50:13;21.6;35.7
78696;SHT31;68030;51.980;5.646;2023-04-29T14:52:42;21.7;36.8
78696;SHT31;68030;51.980;5.646;2023-04-29T14:55:12;21.7;38.5
78696;SHT31;68030;51.980;5.646;2023-04-29T14:57:42;21.8;37.5
78696;SHT31;68030;51.980;5.646;2023-04-29T15:00:12;21.8;37.3
78696;SHT31;68030;51.980;5.646;2023-04-29T15:02:42;21.8;38.2
78696;SHT31;68030;51.980;5.646;2023-04-29T15:05:12;21.8;37.7
78696;SHT31;68030;51.980;5.646;2023-04-29T15:07:42;21.8;37.5
78696;SHT31;68030;51.980;5.646;2023-04-29T15:10:13;21.7;38.1
78696;SHT31;68030;51.980;5.646;2023-04-29T15:12:43;21.7;38.2
78696;SHT31;68030;51.980;5.646;2023-04-29T15:15:12;21.6;38.4
78696;SHT31;68030;51.980;5.646;2023-04-29T15:17:42;21.6;38.5
78696;SHT31;68030;51.980;5.646;2023-04-29T15:20:12;21.6;38.5
78696;SHT31;68030;51.980;5.646;2023-04-29T15:22:41;21.5;38.6
78696;SHT31;68030;51.980;5.646;2023-04-29T15:25:11;21.4;38.4
78696;SHT31;68030;51.980;5.646;2023-04-29T15:27:42;21.4;37.4
78696;SHT31;68030;51.980;5.646;2023-04-29T15:30:13;21.3;39.1
78696;SHT31;68030;51.980;5.646;2023-04-29T15:32:43;21.3;39.1
78696;SHT31;68030;51.980;5.646;2023-04-29T15:35:13;21.3;39.1
78696;SHT31;68030;51.980;5.646;2023-04-29T15:37:42;21.3;38.5
78696;SHT31;68030;51.980;5.646;2023-04-29T15:40:13;21.2;38.7
78696;SHT31;68030;51.980;5.646;2023-04-29T15:42:43;21.2;38.7
78696;SHT31;68030;51.980;5.646;2023-04-29T15:45:12;21.2;38.6
78696;SHT31;68030;51.980;5.646;2023-04-29T15:47:43;21.2;38.2
78696;SHT31;68030;51.980;5.646;2023-04-29T15:50:13;21.3;37.5
78696;SHT31;68030;51.980;5.646;2023-04-29T15:52:43;21.3;37.2
78696;SHT31;68030;51.980;5.646;2023-04-29T15:55:12;21.5;37.4
78696;SHT31;68030;51.980;5.646;2023-04-29T15:57:42;21.7;36.8
78696;SHT31;68030;51.980;5.646;2023-04-29T16:00:12;21.9;36.3
78696;SHT31;68030;51.980;5.646;2023-04-29T16:02:42;22.1;36.0
78696;SHT31;68030;51.980;5.646;2023-04-29T16:05:12;22.4;35.5
78696;SHT31;68030;51.980;5.646;2023-04-29T16:07:42;22.7;35.0
78696;SHT31;68030;51.980;5.646;2023-04-29T16:10:11;23.0;35.6
78696;SHT31;68030;51.980;5.646;2023-04-29T16:12:43;23.2;34.2
78696;SHT31;68030;51.980;5.646;2023-04-29T16:15:14;23.5;33.2
78696;SHT31;68030;51.980;5.646;2023-04-29T16:17:44;23.7;33.3
78696;SHT31;68030;51.980;5.646;2023-04-29T16:20:14;23.8;32.5
78696;SHT31;68030;51.980;5.646;2023-04-29T16:22:43;24.0;32.5
78696;SHT31;68030;51.980;5.646;2023-04-29T16:25:15;24.3;32.2
78696;SHT31;68030;51.980;5.646;2023-04-29T16:27:44;24.5;31.7
78696;SHT31;68030;51.980;5.646;2023-04-29T16:30:14;24.8;31.1
78696;SHT31;68030;51.980;5.646;2023-04-29T16:32:44;24.9;30.5
78696;SHT31;68030;51.980;5.646;2023-04-29T16:35:15;25.1;30.6
78696;SHT31;68030;51.980;5.646;2023-04-29T16:37:45;25.2;29.5
78696;SHT31;68030;51.980;5.646;2023-04-29T16:40:15;25.3;29.2
78696;SHT31;68030;51.980;5.646;2023-04-29T16:42:44;25.4;29.4
78696;SHT31;68030;51.980;5.646;2023-04-29T16:45:14;25.4;29.8
78696;SHT31;68030;51.980;5.646;2023-04-29T16:47:44;25.5;29.3
78696;SHT31;68030;51.980;5.646;2023-04-29T16:50:16;25.6;29.3
78696;SHT31;68030;51.980;5.646;2023-04-29T16:52:46;25.7;28.7
78696;SHT31;68030;51.980;5.646;2023-04-29T16:55:15;25.8;28.5
78696;SHT31;68030;51.980;5.646;2023-04-29T16:57:47;25.9;28.6
78696;SHT31;68030;51.980;5.646;2023-04-29T17:00:19;26.0;27.9
78696;SHT31;68030;51.980;5.646;2023-04-29T17:02:49;26.0;27.7
78696;SHT31;68030;51.980;5.646;2023-04-29T17:05:19;26.1;27.7
78696;SHT31;68030;51.980;5.646;2023-04-29T17:07:49;25.9;28.0
78696;SHT31;68030;51.980;5.646;2023-04-29T17:10:19;25.5;28.1
78696;SHT31;68030;51.980;5.646;2023-04-29T17:12:50;25.1;28.6
78696;SHT31;68030;51.980;5.646;2023-04-29T17:15:20;24.6;29.4
78696;SHT31;68030;51.980;5.646;2023-04-29T17:17:50;24.0;29.8
78696;SHT31;68030;51.980;5.646;2023-04-29T17:20:21;23.6;29.9
78696;SHT31;68030;51.980;5.646;2023-04-29T17:22:53;23.2;30.7
78696;SHT31;68030;51.980;5.646;2023-04-29T17:25:24;22.8;31.4
78696;SHT31;68030;51.980;5.646;2023-04-29T17:27:54;22.4;31.7
78696;SHT31;68030;51.980;5.646;2023-04-29T17:30:23;22.0;32.2
78696;SHT31;68030;51.980;5.646;2023-04-29T17:32:55;21.8;32.7
78696;SHT31;68030;51.980;5.646;2023-04-29T17:35:29;21.5;31.9
78696;SHT31;68030;51.980;5.646;2023-04-29T17:37:59;21.4;32.0
78696;SHT31;68030;51.980;5.646;2023-04-29T17:40:29;21.3;31.9
78696;SHT31;68030;51.980;5.646;2023-04-29T17:42:59;21.2;31.7
78696;SHT31;68030;51.980;5.646;2023-04-29T17:45:29;21.2;31.8
78696;SHT31;68030;51.980;5.646;2023-04-29T17:47:58;21.1;31.6
78696;SHT31;68030;51.980;5.646;2023-04-29T17:50:28;21.0;31.6
78696;SHT31;68030;51.980;5.646;2023-04-29T17:52:57;20.9;31.9
78696;SHT31;68030;51.980;5.646;2023-04-29T17:55:27;20.8;31.9
78696;SHT31;68030;51.980;5.646;2023-04-29T17:57:59;20.6;32.1
78696;SHT31;68030;51.980;5.646;2023-04-29T18:00:28;20.4;32.6
78696;SHT31;68030;51.980;5.646;2023-04-29T18:02:58;20.3;32.6
78696;SHT31;68030;51.980;5.646;2023-04-29T18:05:27;20.1;33.0
78696;SHT31;68030;51.980;5.646;2023-04-29T18:07:58;19.9;33.5
78696;SHT31;68030;51.980;5.646;2023-04-29T18:10:27;19.7;33.9
78696;SHT31;68030;51.980;5.646;2023-04-29T18:12:57;19.6;34.2
78696;SHT31;68030;51.980;5.646;2023-04-29T18:15:27;19.6;34.7
78696;SHT31;68030;51.980;5.646;2023-04-29T18:17:56;19.6;34.7
78696;SHT31;68030;51.980;5.646;2023-04-29T18:20:26;19.5;34.8
78696;SHT31;68030;51.980;5.646;2023-04-29T18:22:56;19.5;35.0
78696;SHT31;68030;51.980;5.646;2023-04-29T18:25:25;19.4;35.2
78696;SHT31;68030;51.980;5.646;2023-04-29T18:27:55;19.4;36.1
78696;SHT31;68030;51.980;5.646;2023-04-29T18:30:26;19.3;36.3
78696;SHT31;68030;51.980;5.646;2023-04-29T18:32:56;19.3;36.0
78696;SHT31;68030;51.980;5.646;2023-04-29T18:35:25;19.2;35.7
78696;SHT31;68030;51.980;5.646;2023-04-29T18:37:55;19.1;36.1
78696;SHT31;68030;51.980;5.646;2023-04-29T18:40:25;19.0;36.1
78696;SHT31;68030;51.980;5.646;2023-04-29T18:42:54;18.8;36.5
78696;SHT31;68030;51.980;5.646;2023-04-29T18:45:24;18.6;37.3
78696;SHT31;68030;51.980;5.646;2023-04-29T18:47:53;18.3;37.8
78696;SHT31;68030;51.980;5.646;2023-04-29T18:50:23;18.1;38.2
78696;SHT31;68030;51.980;5.646;2023-04-29T18:52:53;17.9;38.8
78696;SHT31;68030;51.980;5.646;2023-04-29T18:55:23;17.7;39.4
78696;SHT31;68030;51.980;5.646;2023-04-29T18:57:53;17.5;40.0
78696;SHT31;68030;51.980;5.646;2023-04-29T19:00:25;17.4;40.2
78696;SHT31;68030;51.980;5.646;2023-04-29T19:02:56;17.3;40.4
78696;SHT31;68030;51.980;5.646;2023-04-29T19:05:25;17.2;40.7
78696;SHT31;68030;51.980;5.646;2023-04-29T19:07:55;17.1;40.2
78696;SHT31;68030;51.980;5.646;2023-04-29T19:10:26;17.0;40.7
78696;SHT31;68030;51.980;5.646;2023-04-29T19:12:56;16.8;40.9
78696;SHT31;68030;51.980;5.646;2023-04-29T19:15:25;16.7;41.1
78696;SHT31;68030;51.980;5.646;2023-04-29T19:17:55;16.6;41.5
78696;SHT31;68030;51.980;5.646;2023-04-29T19:20:25;16.5;41.6
78696;SHT31;68030;51.980;5.646;2023-04-29T19:22:55;16.4;42.1
78696;SHT31;68030;51.980;5.646;2023-04-29T19:25:24;16.3;42.1
78696;SHT31;68030;51.980;5.646;2023-04-29T19:27:54;16.2;41.5
78696;SHT31;68030;51.980;5.646;2023-04-29T19:30:24;16.2;42.2
78696;SHT31;68030;51.980;5.646;2023-04-29T19:32:55;16.1;41.8
78696;SHT31;68030;51.980;5.646;2023-04-29T19:35:25;16.0;41.5
78696;SHT31;68030;51.980;5.646;2023-04-29T19:37:55;16.0;41.5
78696;SHT31;68030;51.980;5.646;2023-04-29T19:40:24;15.9;40.9
78696;SHT31;68030;51.980;5.646;2023-04-29T19:42:56;15.9;40.8
78696;SHT31;68030;51.980;5.646;2023-04-29T19:45:25;15.8;41.0
78696;SHT31;68030;51.980;5.646;2023-04-29T19:47:56;15.7;41.1
78696;SHT31;68030;51.980;5.646;2023-04-29T19:50:28;15.7;41.3
78696;SHT31;68030;51.980;5.646;2023-04-29T19:52:58;15.6;41.3
78696;SHT31;68030;51.980;5.646;2023-04-29T19:55:29;15.5;41.3
78696;SHT31;68030;51.980;5.646;2023-04-29T19:58:00;15.5;41.3
78696;SHT31;68030;51.980;5.646;2023-04-29T20:00:31;15.4;41.6
78696;SHT31;68030;51.980;5.646;2023-04-29T20:03:01;15.3;41.8
78696;SHT31;68030;51.980;5.646;2023-04-29T20:05:31;15.3;42.2
78696;SHT31;68030;51.980;5.646;2023-04-29T20:08:00;15.2;42.6
78696;SHT31;68030;51.980;5.646;2023-04-29T20:10:30;15.1;42.9
78696;SHT31;68030;51.980;5.646;2023-04-29T20:13:00;15.1;44.0
78696;SHT31;68030;51.980;5.646;2023-04-29T20:15:29;15.0;44.5
78696;SHT31;68030;51.980;5.646;2023-04-29T20:17:59;14.9;45.2
78696;SHT31;68030;51.980;5.646;2023-04-29T20:20:29;14.9;45.7
78696;SHT31;68030;51.980;5.646;2023-04-29T20:22:58;14.8;46.1
78696;SHT31;68030;51.980;5.646;2023-04-29T20:25:28;14.7;46.9
78696;SHT31;68030;51.980;5.646;2023-04-29T20:27:59;14.7;47.4
78696;SHT31;68030;51.980;5.646;2023-04-29T20:30:29;14.6;48.0
78696;SHT31;68030;51.980;5.646;2023-04-29T20:32:59;14.6;48.5
78696;SHT31;68030;51.980;5.646;2023-04-29T20:35:28;14.5;49.2
78696;SHT31;68030;51.980;5.646;2023-04-29T20:37:58;14.5;49.6
78696;SHT31;68030;51.980;5.646;2023-04-29T20:40:27;14.4;50.1
78696;SHT31;68030;51.980;5.646;2023-04-29T20:42:58;14.4;50.5
78696;SHT31;68030;51.980;5.646;2023-04-29T20:45:29;14.3;50.8
78696;SHT31;68030;51.980;5.646;2023-04-29T20:47:59;14.3;51.2
78696;SHT31;68030;51.980;5.646;2023-04-29T20:50:30;14.2;51.3
78696;SHT31;68030;51.980;5.646;2023-04-29T20:52:59;14.2;51.5
78696;SHT31;68030;51.980;5.646;2023-04-29T20:55:29;14.2;51.9
78696;SHT31;68030;51.980;5.646;2023-04-29T20:57:59;14.1;51.9
78696;SHT31;68030;51.980;5.646;2023-04-29T21:00:29;14.1;52.0
78696;SHT31;68030;51.980;5.646;2023-04-29T21:02:58;14.1;52.6
78696;SHT31;68030;51.980;5.646;2023-04-29T21:05:28;14.0;52.5
78696;SHT31;68030;51.980;5.646;2023-04-29T21:07:59;14.0;52.6
78696;SHT31;68030;51.980;5.646;2023-04-29T21:10:29;14.0;52.8
78696;SHT31;68030;51.980;5.646;2023-04-29T21:12:58;13.9;52.3
78696;SHT31;68030;51.980;5.646;2023-04-29T21:15:28;13.9;52.6
78696;SHT31;68030;51.980;5.646;2023-04-29T21:17:58;13.8;52.7
78696;SHT31;68030;51.980;5.646;2023-04-29T21:20:28;13.8;53.2
78696;SHT31;68030;51.980;5.646;2023-04-29T21:22:57;13.8;54.2
78696;SHT31;68030;51.980;5.646;2023-04-29T21:25:27;13.7;54.7
78696;SHT31;68030;51.980;5.646;2023-04-29T21:27:57;13.7;55.0
78696;SHT31;68030;51.980;5.646;2023-04-29T21:30:26;13.6;55.4
78696;SHT31;68030;51.980;5.646;2023-04-29T21:32:58;13.6;56.0
78696;SHT31;68030;51.980;5.646;2023-04-29T21:35:27;13.6;56.3
78696;SHT31;68030;51.980;5.646;2023-04-29T21:37:57;13.5;56.4
78696;SHT31;68030;51.980;5.646;2023-04-29T21:40:27;13.5;56.3
78696;SHT31;68030;51.980;5.646;2023-04-29T21:42:57;13.5;56.6
78696;SHT31;68030;51.980;5.646;2023-04-29T21:45:27;13.4;57.1
78696;SHT31;68030;51.980;5.646;2023-04-29T21:48:07;13.4;57.1
78696;SHT31;68030;51.980;5.646;2023-04-29T21:50:39;13.4;56.7
78696;SHT31;68030;51.980;5.646;2023-04-29T21:53:09;13.3;57.0
78696;SHT31;68030;51.980;5.646;2023-04-29T21:55:39;13.3;57.0
78696;SHT31;68030;51.980;5.646;2023-04-29T21:58:09;13.3;57.2
78696;SHT31;68030;51.980;5.646;2023-04-29T22:00:39;13.2;57.1
78696;SHT31;68030;51.980;5.646;2023-04-29T22:03:14;13.2;57.2
78696;SHT31;68030;51.980;5.646;2023-04-29T22:05:43;13.2;57.3
78696;SHT31;68030;51.980;5.646;2023-04-29T22:08:13;13.1;57.3
78696;SHT31;68030;51.980;5.646;2023-04-29T22:10:42;13.1;57.5
78696;SHT31;68030;51.980;5.646;2023-04-29T22:13:12;13.1;57.6
78696;SHT31;68030;51.980;5.646;2023-04-29T22:15:42;13.0;57.8
78696;SHT31;68030;51.980;5.646;2023-04-29T22:18:14;13.0;57.9
78696;SHT31;68030;51.980;5.646;2023-04-29T22:20:43;12.9;57.9
78696;SHT31;68030;51.980;5.646;2023-04-29T22:23:15;12.9;58.4
78696;SHT31;68030;51.980;5.646;2023-04-29T22:25:44;12.9;58.8
78696;SHT31;68030;51.980;5.646;2023-04-29T22:28:15;12.9;58.5
78696;SHT31;68030;51.980;5.646;2023-04-29T22:30:45;12.8;59.0
78696;SHT31;68030;51.980;5.646;2023-04-29T22:33:15;12.8;58.3
78696;SHT31;68030;51.980;5.646;2023-04-29T22:35:44;12.8;57.7
78696;SHT31;68030;51.980;5.646;2023-04-29T22:38:14;12.8;57.4
78696;SHT31;68030;51.980;5.646;2023-04-29T22:40:50;12.8;57.7
78696;SHT31;68030;51.980;5.646;2023-04-29T22:43:21;12.7;57.8
78696;SHT31;68030;51.980;5.646;2023-04-29T22:45:53;12.7;58.0
78696;SHT31;68030;51.980;5.646;2023-04-29T22:48:23;12.6;58.8
78696;SHT31;68030;51.980;5.646;2023-04-29T22:50:55;12.6;58.9
78696;SHT31;68030;51.980;5.646;2023-04-29T22:53:25;12.6;59.1
78696;SHT31;68030;51.980;5.646;2023-04-29T22:55:57;12.6;59.9
78696;SHT31;68030;51.980;5.646;2023-04-29T22:58:28;12.5;59.7
78696;SHT31;68030;51.980;5.646;2023-04-29T23:00:59;12.5;59.5
78696;SHT31;68030;51.980;5.646;2023-04-29T23:03:29;12.5;59.2
78696;SHT31;68030;51.980;5.646;2023-04-29T23:05:59;12.4;59.5
78696;SHT31;68030;51.980;5.646;2023-04-29T23:08:29;12.4;59.6
78696;SHT31;68030;51.980;5.646;2023-04-29T23:10:59;12.4;59.6
78696;SHT31;68030;51.980;5.646;2023-04-29T23:13:29;12.4;59.2
78696;SHT31;68030;51.980;5.646;2023-04-29T23:16:00;12.3;59.0
78696;SHT31;68030;51.980;5.646;2023-04-29T23:18:30;12.3;59.1
78696;SHT31;68030;51.980;5.646;2023-04-29T23:20:59;12.2;59.5
78696;SHT31;68030;51.980;5.646;2023-04-29T23:23:30;12.2;59.8
78696;SHT31;68030;51.980;5.646;2023-04-29T23:25:59;12.2;59.8
78696;SHT31;68030;51.980;5.646;2023-04-29T23:28:29;12.1;60.1
78696;SHT31;68030;51.980;5.646;2023-04-29T23:30:59;12.1;60.8
78696;SHT31;68030;51.980;5.646;2023-04-29T23:33:28;12.1;61.0
78696;SHT31;68030;51.980;5.646;2023-04-29T23:35:58;12.0;61.3
78696;SHT31;68030;51.980;5.646;2023-04-29T23:38:27;12.0;61.5
78696;SHT31;68030;51.980;5.646;2023-04-29T23:40:57;12.0;62.0